Station Historical Data
Daily Summary for October 21, 2017 Units:  Metric    English   Both
« Previous Day
Next Day »
Daily Weekly Monthly Yearly Custom
  High: Low: Average:
Temperature: 23.2 °C 5.4 °C 13.8 °C
Dew Point: 9.3 °C 3.3 °C 6.8 °C
Humidity: 87% 36% 66%
Wind Speed: 11.3km/h 0km/h 1.1km/h
Wind Gust: 16.1km/h - -
Wind- - WSW
Pressure: 1026 hPa 1022.9 hPa -
Precipitation: 0 mm    
Historical Graphs
 
 
Tabular Data for October 21, 2017
Time Temperature Dew Point Pressure Wind Wind Speed Wind Gust Humidity Rainfall Rate (Hourly)
00:04 9.1 °C 6.4 °C 1022.9 hPa Calm     83% 0 mm
00:09 9.1 °C 6.4 °C 1022.9 hPa Calm     83% 0 mm
00:14 9 °C 6.3 °C 1022.9 hPa Calm     83% 0 mm
00:19 8.8 °C 5.9 °C 1022.9 hPa Calm     82% 0 mm
00:24 8.6 °C 5.9 °C 1022.9 hPa Calm     83% 0 mm
00:29 8.5 °C 5.9 °C 1022.9 hPa Calm     84% 0 mm
00:34 8.4 °C 5.8 °C 1022.9 hPa Calm     84% 0 mm
00:39 8.5 °C 6.1 °C 1022.9 hPa Calm     85% 0 mm
00:44 8.4 °C 6.1 °C 1022.9 hPa Calm     85% 0 mm
00:49 8.3 °C 5.8 °C 1022.9 hPa Calm     84% 0 mm
00:54 8.3 °C 5.9 °C 1022.9 hPa Calm     85% 0 mm
00:59 8.4 °C 6 °C 1022.9 hPa Calm     85% 0 mm
01:04 8.5 °C 5.9 °C 1022.9 hPa Calm     84% 0 mm
01:09 8.3 °C 5.6 °C 1022.9 hPa Calm     83% 0 mm
01:14 8.1 °C 5.4 °C 1022.9 hPa Calm     83% 0 mm
01:19 7.8 °C 5.3 °C 1022.9 hPa Calm     84% 0 mm
01:24 7.8 °C 5.2 °C 1022.9 hPa Calm     84% 0 mm
01:29 7.9 °C 5.5 °C 1023.2 hPa Calm     85% 0 mm
01:34 7.9 °C 5.4 °C 1022.9 hPa Calm     84% 0 mm
01:39 7.8 °C 5.3 °C 1023.2 hPa Calm     84% 0 mm
01:44 7.7 °C 5.2 °C 1023.2 hPa Calm     84% 0 mm
01:49 7.5 °C 4.9 °C 1023.2 hPa Calm     84% 0 mm
01:54 7.5 °C 4.9 °C 1023.2 hPa Calm     84% 0 mm
01:59 7.6 °C 5.2 °C 1023.2 hPa Calm     85% 0 mm
02:04 7.5 °C 5.2 °C 1023.2 hPa Calm     85% 0 mm
02:09 7.4 °C 5.1 °C 1023.2 hPa Calm     85% 0 mm
02:14 7.4 °C 5.1 °C 1023.2 hPa Calm     85% 0 mm
02:19 7.4 °C 5.1 °C 1023.2 hPa Calm     85% 0 mm
02:24 7.4 °C 4.8 °C 1023.2 hPa Calm     84% 0 mm
02:29 7.3 °C 4.8 °C 1023.6 hPa Calm     84% 0 mm
02:34 7.3 °C 4.8 °C 1023.6 hPa Calm     84% 0 mm
02:39 7.2 °C 4.7 °C 1023.6 hPa Calm     84% 0 mm
02:44 7 °C 4.5 °C 1023.6 hPa Calm     84% 0 mm
02:49 7 °C 4.5 °C 1023.6 hPa Calm     84% 0 mm
02:54 6.9 °C 4.4 °C 1023.6 hPa Calm     84% 0 mm
02:59 6.9 °C 4.4 °C 1023.6 hPa Calm     84% 0 mm
03:04 6.8 °C 4.3 °C 1023.6 hPa Calm     84% 0 mm
03:09 6.8 °C 4.4 °C 1023.6 hPa Calm     85% 0 mm
03:14 6.7 °C 4.4 °C 1023.6 hPa Calm     85% 0 mm
03:19 6.6 °C 4.3 °C 1023.6 hPa Calm     85% 0 mm
03:24 6.6 °C 4.2 °C 1023.6 hPa Calm     85% 0 mm
03:29 6.6 °C 4.4 °C 1023.6 hPa Calm     86% 0 mm
03:34 6.6 °C 4.4 °C 1023.6 hPa Calm     86% 0 mm
03:39 6.6 °C 4.3 °C 1023.6 hPa Calm     85% 0 mm
03:44 6.5 °C 4.3 °C 1023.6 hPa Calm     86% 0 mm
03:49 6.5 °C 4.3 °C 1023.6 hPa Calm     86% 0 mm
03:54 6.4 °C 4.2 °C 1023.9 hPa Calm     86% 0 mm
03:59 6.3 °C 4.2 °C 1023.6 hPa Calm     86% 0 mm
04:04 6.3 °C 4.2 °C 1023.9 hPa Calm     86% 0 mm
04:09 6.3 °C 4.2 °C 1023.9 hPa Calm     86% 0 mm
04:14 6.3 °C 4.1 °C 1023.9 hPa Calm     86% 0 mm
04:19 6.2 °C 4.1 °C 1023.9 hPa Calm     86% 0 mm
04:24 6.2 °C 3.8 °C 1023.9 hPa Calm     85% 0 mm
04:29 6.1 °C 3.9 °C 1023.9 hPa Calm     86% 0 mm
04:34 6.1 °C 3.9 °C 1023.9 hPa Calm     86% 0 mm
04:39 6.1 °C 3.9 °C 1023.9 hPa Calm     86% 0 mm
04:44 6.1 °C 3.9 °C 1023.9 hPa Calm     86% 0 mm
04:49 6.1 °C 3.9 °C 1023.9 hPa Calm     86% 0 mm
04:54 6.1 °C 3.9 °C 1023.9 hPa Calm     86% 0 mm
04:59 6.1 °C 3.9 °C 1023.9 hPa Calm     86% 0 mm
05:04 6.1 °C 3.9 °C 1023.9 hPa Calm     86% 0 mm
05:09 6.1 °C 3.9 °C 1024.3 hPa Calm     86% 0 mm
05:14 6.1 °C 3.9 °C 1024.3 hPa Calm     86% 0 mm
05:19 6.1 °C 3.9 °C 1024.3 hPa Calm     86% 0 mm
05:24 6.1 °C 3.9 °C 1024.3 hPa Calm     86% 0 mm
05:29 6.1 °C 3.9 °C 1024.3 hPa Calm     86% 0 mm
05:34 6.1 °C 3.9 °C 1024.3 hPa Calm     86% 0 mm
05:39 6 °C 3.8 °C 1024.3 hPa Calm     86% 0 mm
05:44 5.9 °C 3.8 °C 1024.3 hPa Calm     86% 0 mm
05:49 5.9 °C 3.8 °C 1024.3 hPa Calm     86% 0 mm
05:54 5.8 °C 3.7 °C 1024.6 hPa Calm     86% 0 mm
05:59 5.8 °C 3.7 °C 1024.3 hPa Calm     86% 0 mm
06:04 5.8 °C 3.6 °C 1024.6 hPa Calm     86% 0 mm
06:09 5.7 °C 3.6 °C 1024.6 hPa Calm     86% 0 mm
06:14 5.7 °C 3.6 °C 1024.6 hPa Calm     86% 0 mm
06:19 5.7 °C 3.6 °C 1024.6 hPa Calm     86% 0 mm
06:24 5.8 °C 3.6 °C 1024.6 hPa Calm     86% 0 mm
06:29 5.8 °C 3.6 °C 1024.6 hPa Calm     86% 0 mm
06:34 5.8 °C 3.6 °C 1024.6 hPa Calm     86% 0 mm
06:39 5.8 °C 3.7 °C 1024.6 hPa Calm     86% 0 mm
06:44 5.7 °C 3.5 °C 1024.6 hPa Calm     86% 0 mm
06:49 5.7 °C 3.5 °C 1024.6 hPa Calm     86% 0 mm
06:54 5.6 °C 3.4 °C 1024.6 hPa Calm     86% 0 mm
06:59 5.6 °C 3.4 °C 1024.6 hPa Calm     86% 0 mm
07:04 5.6 °C 3.4 °C 1024.6 hPa Calm     86% 0 mm
07:09 5.5 °C 3.3 °C 1024.6 hPa Calm     86% 0 mm
07:14 5.5 °C 3.3 °C 1024.6 hPa Calm     86% 0 mm
07:19 5.4 °C 3.3 °C 1024.9 hPa Calm     86% 0 mm
07:24 5.5 °C 3.3 °C 1024.9 hPa Calm     86% 0 mm
07:29 5.5 °C 3.5 °C 1024.9 hPa Calm     87% 0 mm
07:34 5.5 °C 3.5 °C 1024.9 hPa Calm     87% 0 mm
07:39 5.5 °C 3.5 °C 1024.9 hPa Calm     87% 0 mm
07:44 5.5 °C 3.5 °C 1025.3 hPa Calm     87% 0 mm
07:49 5.6 °C 3.6 °C 1025.3 hPa Calm     87% 0 mm
07:54 5.8 °C 3.8 °C 1025.3 hPa Calm     87% 0 mm
07:59 6 °C 4 °C 1025.3 hPa Calm     87% 0 mm
08:04 6.4 °C 4.2 °C 1025.3 hPa Calm     86% 0 mm
08:09 6.6 °C 4.4 °C 1025.3 hPa Calm     86% 0 mm
08:14 6.9 °C 4.6 °C 1025.3 hPa Calm     85% 0 mm
08:19 7.2 °C 4.7 °C 1025.3 hPa Calm     84% 0 mm
08:24 7.4 °C 4.9 °C 1025.6 hPa Calm     84% 0 mm
08:29 7.8 °C 5.1 °C 1025.3 hPa Calm     83% 0 mm
08:34 8.3 °C 5.2 °C 1025.6 hPa Calm     81% 0 mm
08:39 8.6 °C 5.1 °C 1025.6 hPa Calm     79% 0 mm
08:44 9.1 °C 5.4 °C 1025.6 hPa Calm     78% 0 mm
08:49 9.8 °C 5.9 °C 1025.6 hPa Calm     77% 0 mm
08:54 10.5 °C 5.9 °C 1026 hPa Calm     73% 0 mm
08:59 11.1 °C 6.1 °C 1026 hPa Calm     71% 0 mm
09:04 11.5 °C 6.2 °C 1026 hPa Calm     70% 0 mm
09:09 11.7 °C 6.2 °C 1026 hPa Calm   3.2 km/h 69% 0 mm
09:14 11.9 °C 6.2 °C 1026 hPa Calm   3.2 km/h 68% 0 mm
09:19 12.3 °C 6.6 °C 1026 hPa Calm     68% 0 mm
09:24 12.8 °C 7 °C 1026 hPa Calm     68% 0 mm
09:29 13 °C 6.6 °C 1026 hPa Calm     65% 0 mm
09:34 13.3 °C 6.7 °C 1026 hPa Calm     64% 0 mm
09:39 13.7 °C 7 °C 1026 hPa Calm   3.2 km/h 64% 0 mm
09:44 13.9 °C 6.8 °C 1026 hPa SSW 1.6 km/h 4.8 km/h 62% 0 mm
09:49 14.3 °C 7.2 °C 1026 hPa Calm   3.2 km/h 62% 0 mm
09:54 14.7 °C 7.3 °C 1026 hPa Calm     61% 0 mm
09:59 15.1 °C 7.1 °C 1026 hPa SSW 1.6 km/h 6.4 km/h 59% 0 mm
10:04 15.1 °C 7.2 °C 1026 hPa Calm   4.8 km/h 59% 0 mm
10:09 15.2 °C 7.5 °C 1026 hPa Calm   4.8 km/h 60% 0 mm
10:14 15.5 °C 7.3 °C 1026 hPa Calm   6.4 km/h 58% 0 mm
10:19 16 °C 8 °C 1026 hPa South 1.6 km/h 6.4 km/h 59% 0 mm
10:24 16.4 °C 8.1 °C 1026 hPa SSW 1.6 km/h 4.8 km/h 58% 0 mm
10:34 16.8 °C 8.5 °C 1025.6 hPa Calm   4.8 km/h 58% 0 mm
10:39 16.9 °C 8.1 °C 1025.6 hPa Calm   6.4 km/h 56% 0 mm
10:44 17 °C 8.2 °C 1025.6 hPa SSW 4.8 km/h 9.7 km/h 56% 0 mm
10:49 17.3 °C 7.6 °C 1025.6 hPa Calm   4.8 km/h 53% 0 mm
10:54 17.7 °C 7.9 °C 1025.6 hPa SSW 3.2 km/h 6.4 km/h 53% 0 mm
10:59 17.9 °C 8.2 °C 1025.6 hPa SSW 3.2 km/h 8 km/h 53% 0 mm
11:04 18.3 °C 9.1 °C 1025.6 hPa SW 1.6 km/h 6.4 km/h 55% 0 mm
11:09 18.7 °C 8.9 °C 1025.6 hPa South 1.6 km/h 8 km/h 53% 0 mm
11:14 19.1 °C 9.3 °C 1025.6 hPa SSW 3.2 km/h 8 km/h 53% 0 mm
11:19 19.4 °C 9.1 °C 1025.6 hPa SSW 3.2 km/h 8 km/h 51% 0 mm
11:24 19.9 °C 9.2 °C 1025.3 hPa SW 3.2 km/h 9.7 km/h 50% 0 mm
11:29 20.2 °C 9.1 °C 1025.6 hPa SW 1.6 km/h 6.4 km/h 49% 0 mm
11:34 20.3 °C 8.7 °C 1025.6 hPa SSW 4.8 km/h 12.9 km/h 47% 0 mm
11:39 20.6 °C 8.2 °C 1025.6 hPa SSW 3.2 km/h 8 km/h 45% 0 mm
11:44 20.3 °C 8.3 °C 1025.6 hPa SW 3.2 km/h 11.3 km/h 46% 0 mm
11:49 20.5 °C 8.8 °C 1025.6 hPa SW 3.2 km/h 11.3 km/h 47% 0 mm
11:54 20.8 °C 8.7 °C 1025.6 hPa SW 4.8 km/h 6.4 km/h 46% 0 mm
11:59 20.9 °C 7.9 °C 1025.6 hPa SW 3.2 km/h 9.7 km/h 43% 0 mm
12:04 21.2 °C 8.1 °C 1025.6 hPa Calm   8 km/h 43% 0 mm
12:09 21.5 °C 7.3 °C 1025.3 hPa WSW 9.7 km/h 12.9 km/h 40% 0 mm
12:14 21.8 °C 8.7 °C 1025.3 hPa West 3.2 km/h 11.3 km/h 43% 0 mm
12:19 22.1 °C 7.8 °C 1025.3 hPa WSW 8 km/h 12.9 km/h 40% 0 mm
12:24 21.8 °C 7.2 °C 1025.3 hPa SW 4.8 km/h 12.9 km/h 39% 0 mm
12:29 22.1 °C 7.9 °C 1025.3 hPa SW 4.8 km/h 11.3 km/h 40% 0 mm
12:34 22.2 °C 7.6 °C 1025.3 hPa WSW 11.3 km/h 14.5 km/h 39% 0 mm
12:39 22.3 °C 8 °C 1025.3 hPa WSW 3.2 km/h 16.1 km/h 40% 0 mm
12:44 22.1 °C 7.1 °C 1024.9 hPa WSW 8 km/h 16.1 km/h 38% 0 mm
12:49 22.3 °C 8.1 °C 1024.9 hPa West 4.8 km/h 9.7 km/h 40% 0 mm
12:54 22.5 °C 7.4 °C 1024.9 hPa WSW 6.4 km/h 14.5 km/h 38% 0 mm
12:59 22.7 °C 8.4 °C 1024.9 hPa WSW 6.4 km/h 14.5 km/h 40% 0 mm
13:04 22.8 °C 8.5 °C 1024.9 hPa SW 6.4 km/h 14.5 km/h 40% 0 mm
13:09 22.4 °C 7.4 °C 1024.9 hPa SW 8 km/h 14.5 km/h 38% 0 mm
13:14 22.4 °C 7.4 °C 1024.9 hPa SW 11.3 km/h 16.1 km/h 38% 0 mm
13:19 22.6 °C 7.9 °C 1024.6 hPa WNW 8 km/h 12.9 km/h 39% 0 mm
13:24 22.4 °C 7.4 °C 1024.6 hPa SW 8 km/h 12.9 km/h 38% 0 mm
13:29 22.6 °C 7.9 °C 1024.6 hPa SW 8 km/h 14.5 km/h 39% 0 mm
13:34 22.7 °C 8 °C 1024.6 hPa WSW 6.4 km/h 14.5 km/h 39% 0 mm
13:39 22.9 °C 7.8 °C 1024.6 hPa SW 6.4 km/h 12.9 km/h 38% 0 mm
13:44 22.8 °C 8.1 °C 1024.6 hPa SW 6.4 km/h 12.9 km/h 39% 0 mm
13:49 22.8 °C 8.4 °C 1024.6 hPa WSW 4.8 km/h 9.7 km/h 40% 0 mm
13:54 22.7 °C 7.2 °C 1024.3 hPa West 3.2 km/h 11.3 km/h 37% 0 mm
13:59 22.7 °C 6.8 °C 1024.3 hPa WSW 6.4 km/h 14.5 km/h 36% 0 mm
14:04 22.8 °C 8.5 °C 1024.3 hPa WSW 6.4 km/h 14.5 km/h 40% 0 mm
14:09 23 °C 8.3 °C 1024.3 hPa WSW 6.4 km/h 14.5 km/h 39% 0 mm
14:14 23.1 °C 8 °C 1024.3 hPa SW 4.8 km/h 11.3 km/h 38% 0 mm
14:19 23.2 °C 7.7 °C 1024.3 hPa WSW 1.6 km/h 11.3 km/h 37% 0 mm
14:24 23.2 °C 7.7 °C 1024.3 hPa West 4.8 km/h 9.7 km/h 37% 0 mm
14:29 23.2 °C 9.2 °C 1024.3 hPa WSW 3.2 km/h 11.3 km/h 41% 0 mm
14:34 23.1 °C 7.6 °C 1024.3 hPa WSW 4.8 km/h 11.3 km/h 37% 0 mm
14:39 23 °C 8.3 °C 1024.3 hPa WSW 4.8 km/h 11.3 km/h 39% 0 mm
14:44 22.9 °C 8.6 °C 1024.3 hPa WSW 6.4 km/h 11.3 km/h 40% 0 mm
14:49 23 °C 8.3 °C 1024.3 hPa WSW 6.4 km/h 11.3 km/h 39% 0 mm
14:54 23 °C 7.5 °C 1024.3 hPa WSW 6.4 km/h 11.3 km/h 37% 0 mm
14:59 23 °C 7.1 °C 1023.9 hPa West 4.8 km/h 11.3 km/h 36% 0 mm
15:04 22.8 °C 8.1 °C 1023.9 hPa WSW 4.8 km/h 11.3 km/h 39% 0 mm
15:09 22.9 °C 7.4 °C 1023.9 hPa WSW 4.8 km/h 11.3 km/h 37% 0 mm
15:14 22.9 °C 8.6 °C 1023.9 hPa WSW 3.2 km/h 8 km/h 40% 0 mm
15:19 22.9 °C 8.2 °C 1023.9 hPa WSW 1.6 km/h 4.8 km/h 39% 0 mm
15:24 22.8 °C 7.8 °C 1023.9 hPa Calm   6.4 km/h 38% 0 mm
15:29 22.8 °C 8.2 °C 1023.9 hPa West 1.6 km/h 8 km/h 39% 0 mm
15:34 22.8 °C 8.1 °C 1023.9 hPa SW 4.8 km/h 9.7 km/h 39% 0 mm
15:39 22.8 °C 8.8 °C 1023.9 hPa WSW 4.8 km/h 9.7 km/h 41% 0 mm
15:44 22.9 °C 8.2 °C 1023.9 hPa WSW 3.2 km/h 8 km/h 39% 0 mm
15:49 22.8 °C 8.2 °C 1023.9 hPa WSW 3.2 km/h 6.4 km/h 39% 0 mm
15:54 22.7 °C 8 °C 1023.9 hPa WSW 3.2 km/h 8 km/h 39% 0 mm
15:59 22.4 °C 7.8 °C 1023.9 hPa SW 1.6 km/h 9.7 km/h 39% 0 mm
16:04 22.3 °C 8.1 °C 1023.9 hPa WSW 1.6 km/h 6.4 km/h 40% 0 mm
16:09 22.2 °C 7.9 °C 1024.3 hPa Calm   6.4 km/h 40% 0 mm
16:14 22.1 °C 7.1 °C 1023.9 hPa WSW 3.2 km/h 8 km/h 38% 0 mm
16:19 21.9 °C 6.9 °C 1023.9 hPa WSW 3.2 km/h 8 km/h 38% 0 mm
16:24 21.9 °C 7.3 °C 1023.9 hPa WSW 3.2 km/h 8 km/h 39% 0 mm
16:29 21.8 °C 6.9 °C 1023.9 hPa WSW 3.2 km/h 4.8 km/h 38% 0 mm
16:34 21.7 °C 7.2 °C 1023.9 hPa Calm   6.4 km/h 39% 0 mm
16:39 21.7 °C 7.1 °C 1023.6 hPa Calm   4.8 km/h 39% 0 mm
16:44 21.7 °C 7.5 °C 1023.6 hPa SW 1.6 km/h 4.8 km/h 40% 0 mm
16:49 21.8 °C 7.2 °C 1023.6 hPa SW 1.6 km/h 4.8 km/h 39% 0 mm
16:54 22 °C 7 °C 1023.6 hPa Calm   4.8 km/h 38% 0 mm
16:59 22.2 °C 8.3 °C 1023.6 hPa Calm   1.6 km/h 41% 0 mm
17:04 22.1 °C 7.8 °C 1023.9 hPa Calm     40% 0 mm
17:09 21.8 °C 8 °C 1023.9 hPa Calm   3.2 km/h 41% 0 mm
17:14 21.6 °C 7.4 °C 1023.9 hPa Calm   4.8 km/h 40% 0 mm
17:19 21.3 °C 7.9 °C 1023.9 hPa Calm     42% 0 mm
17:24 21.1 °C 7.3 °C 1023.9 hPa Calm     41% 0 mm
17:29 21.1 °C 8 °C 1023.9 hPa Calm     43% 0 mm
17:34 20.9 °C 7.6 °C 1023.9 hPa Calm     42% 0 mm
17:39 20.8 °C 7.4 °C 1023.9 hPa Calm     42% 0 mm
17:44 20.6 °C 7.9 °C 1023.9 hPa Calm     44% 0 mm
17:49 20.1 °C 8.7 °C 1023.9 hPa Calm     48% 0 mm
17:54 19.7 °C 8.3 °C 1023.9 hPa Calm     48% 0 mm
17:59 19.4 °C 8.4 °C 1023.9 hPa Calm     49% 0 mm
18:04 19.1 °C 8.7 °C 1023.9 hPa Calm     51% 0 mm
18:09 18.7 °C 8.3 °C 1023.9 hPa Calm     51% 0 mm
18:14 18.3 °C 8.6 °C 1023.9 hPa Calm     53% 0 mm
18:19 17.9 °C 8.5 °C 1023.9 hPa Calm     54% 0 mm
18:24 17.7 °C 8.8 °C 1023.9 hPa Calm     56% 0 mm
18:29 17.3 °C 8.4 °C 1023.9 hPa Calm     56% 0 mm
18:34 17.1 °C 8.4 °C 1023.9 hPa Calm     57% 0 mm
18:39 16.8 °C 8.4 °C 1023.9 hPa Calm     58% 0 mm
18:44 16.6 °C 8.8 °C 1024.3 hPa Calm     60% 0 mm
18:49 16.3 °C 8.8 °C 1024.3 hPa Calm     61% 0 mm
18:54 16.2 °C 8.9 °C 1024.3 hPa Calm     62% 0 mm
18:59 15.9 °C 8.8 °C 1024.3 hPa Calm     63% 0 mm
19:04 15.7 °C 8.7 °C 1024.3 hPa Calm     63% 0 mm
19:09 15.6 °C 8.8 °C 1024.3 hPa Calm     64% 0 mm
19:14 15.4 °C 8.6 °C 1024.3 hPa Calm     64% 0 mm
19:19 15.2 °C 8.6 °C 1024.3 hPa Calm     65% 0 mm
19:24 14.9 °C 8.7 °C 1023.9 hPa Calm     66% 0 mm
19:29 15 °C 8.7 °C 1024.3 hPa Calm     66% 0 mm
19:34 14.9 °C 8.6 °C 1024.3 hPa Calm     66% 0 mm
19:39 14.7 °C 8.7 °C 1024.3 hPa Calm     67% 0 mm
19:44 14.6 °C 8.8 °C 1024.3 hPa Calm     68% 0 mm
19:49 14.6 °C 8.7 °C 1024.3 hPa Calm     68% 0 mm
19:54 14.4 °C 8.6 °C 1024.3 hPa Calm     68% 0 mm
19:59 14.4 °C 8.6 °C 1024.3 hPa Calm     68% 0 mm
20:04 14.5 °C 8.4 °C 1024.3 hPa Calm     67% 0 mm
20:09 14.7 °C 8.7 °C 1024.3 hPa Calm     67% 0 mm
20:14 14.5 °C 8.4 °C 1023.9 hPa Calm     67% 0 mm
20:19 14.2 °C 8.6 °C 1023.9 hPa Calm     69% 0 mm
20:24 14.1 °C 8.4 °C 1024.3 hPa Calm     69% 0 mm
20:29 14 °C 8.6 °C 1024.3 hPa Calm     70% 0 mm
20:34 14.1 °C 8.4 °C 1024.3 hPa Calm     69% 0 mm
20:39 13.8 °C 8.4 °C 1024.3 hPa Calm     70% 0 mm
20:44 13.8 °C 8.6 °C 1024.3 hPa Calm     71% 0 mm
20:49 13.7 °C 8.5 °C 1024.3 hPa Calm     71% 0 mm
20:54 13.7 °C 8.7 °C 1024.3 hPa Calm     72% 0 mm
20:59 13.8 °C 8.8 °C 1024.3 hPa Calm     72% 0 mm
21:04 14.1 °C 8.7 °C 1024.3 hPa Calm     70% 0 mm
21:09 14.2 °C 8.8 °C 1024.3 hPa Calm     70% 0 mm
21:14 14.1 °C 8.9 °C 1024.3 hPa Calm     71% 0 mm
21:19 14.2 °C 9.1 °C 1024.3 hPa Calm     71% 0 mm
21:24 14.2 °C 9.1 °C 1024.3 hPa Calm     71% 0 mm
21:29 14.3 °C 9.3 °C 1024.3 hPa Calm     72% 0 mm
21:34 14.3 °C 9.3 °C 1024.3 hPa Calm     72% 0 mm
21:39 14.3 °C 9.3 °C 1024.3 hPa Calm     72% 0 mm
21:44 14.3 °C 9.2 °C 1024.3 hPa Calm     71% 0 mm
21:49 14.3 °C 9.3 °C 1024.3 hPa Calm     72% 0 mm
21:54 14.1 °C 9.1 °C 1024.3 hPa Calm     72% 0 mm
21:59 13.8 °C 9 °C 1024.3 hPa Calm     73% 0 mm
22:04 13.8 °C 9.1 °C 1024.3 hPa Calm     73% 0 mm
22:09 14.1 °C 9.1 °C 1024.3 hPa Calm     72% 0 mm
22:14 14.1 °C 9.1 °C 1023.9 hPa Calm     72% 0 mm
22:19 14.2 °C 9.2 °C 1023.9 hPa Calm     72% 0 mm
22:24 14.2 °C 9 °C 1023.9 hPa Calm     71% 0 mm
22:29 14.1 °C 8.9 °C 1023.9 hPa Calm     71% 0 mm
22:34 13.8 °C 8.9 °C 1023.9 hPa Calm     72% 0 mm
22:39 13.5 °C 8.6 °C 1023.9 hPa Calm     72% 0 mm
22:44 13.2 °C 8.6 °C 1023.9 hPa Calm     74% 0 mm
22:49 12.9 °C 8.6 °C 1023.9 hPa Calm     75% 0 mm
22:54 12.7 °C 8.4 °C 1023.9 hPa Calm     75% 0 mm
22:59 12.6 °C 8.4 °C 1023.9 hPa Calm     76% 0 mm
23:04 12.4 °C 8.3 °C 1023.9 hPa Calm     76% 0 mm
23:09 12.2 °C 8.3 °C 1023.9 hPa Calm     77% 0 mm
23:15 12.1 °C 8.2 °C 1023.9 hPa Calm     77% 0 mm
23:24 11.8 °C 8.1 °C 1023.9 hPa Calm     78% 0 mm
23:29 11.7 °C 8 °C 1023.9 hPa Calm     78% 0 mm
23:34 11.7 °C 8 °C 1023.9 hPa Calm     78% 0 mm
23:39 11.6 °C 7.9 °C 1023.9 hPa Calm     78% 0 mm
23:44 11.5 °C 8 °C 1023.9 hPa Calm     79% 0 mm
23:49 11.3 °C 7.8 °C 1023.9 hPa Calm     79% 0 mm
23:54 11.3 °C 7.8 °C 1023.9 hPa Calm     79% 0 mm
23:59 11.4 °C 7.9 °C 1023.9 hPa Calm     79% 0 mm
Buffalo, New York, USA
Compliments of Weather Underground - 2.5 mb